createdAt,value
2017-02-03T12:18:58.648Z,0
2017-02-03T12:19:37.187Z,0
2017-02-03T12:26:42.161Z,10
2017-02-03T12:28:47.206Z,10
2017-02-03T12:30:52.351Z,10
2017-02-03T12:37:58.439Z,95
2017-02-03T12:40:25.129Z,85
2017-02-03T12:42:51.788Z,140
2017-02-03T12:45:18.385Z,175
2017-02-03T12:47:44.914Z,130
2017-02-03T12:50:11.375Z,115
2017-02-03T12:52:37.786Z,95
2017-02-03T12:56:39.996Z,110
2017-02-03T12:59:06.421Z,135
2017-02-03T13:01:32.749Z,120
2017-02-03T13:03:59.064Z,105
2017-02-03T13:06:25.491Z,135
2017-02-03T13:08:51.779Z,160
2017-02-03T13:11:18.057Z,145
2017-02-03T13:13:44.327Z,150
2017-02-03T13:16:02.019Z,135
2017-02-03T13:18:28.229Z,120
2017-02-03T13:22:39.058Z,105
2017-02-03T13:25:05.252Z,100
2017-02-03T13:27:31.556Z,125
2017-02-03T13:29:57.786Z,135
2017-02-03T13:34:34.466Z,200
2017-02-03T13:37:00.722Z,160
2017-02-03T13:39:26.995Z,180
2017-02-03T13:41:53.227Z,125
2017-02-03T13:44:19.493Z,125
2017-02-03T13:46:45.753Z,135
2017-02-03T13:49:12.068Z,110
2017-02-03T13:51:38.353Z,120
2017-02-03T13:54:04.611Z,115
2017-02-03T13:56:30.968Z,135
2017-02-03T13:58:57.140Z,115
2017-02-03T14:02:59.360Z,95
2017-02-03T14:07:01.478Z,65
2017-02-03T14:09:27.729Z,85
2017-02-03T14:11:53.905Z,80
2017-02-03T14:14:20.065Z,100
2017-02-03T14:18:48.092Z,110
2017-02-03T14:21:14.337Z,105
2017-02-03T14:23:40.556Z,75
2017-02-03T14:26:06.707Z,65
2017-02-03T14:28:32.868Z,70
2017-02-03T14:30:59.090Z,65
2017-02-03T14:33:16.742Z,65
2017-02-03T14:35:42.925Z,65
2017-02-03T14:38:09.144Z,60
2017-02-03T14:40:35.351Z,60
2017-02-03T14:43:01.591Z,60
2017-02-03T14:45:27.824Z,55
2017-02-03T14:47:54.029Z,55
2017-02-03T14:50:20.236Z,55
2017-02-03T14:52:46.426Z,55
2017-02-03T14:55:12.674Z,50
2017-02-03T14:57:38.876Z,50
2017-02-03T15:00:05.146Z,50
2017-02-03T15:02:31.391Z,50
2017-02-03T15:04:57.592Z,50
2017-02-03T15:07:23.842Z,45
2017-02-03T15:09:50.076Z,45
2017-02-03T15:12:16.276Z,45
2017-02-03T15:14:42.479Z,40
2017-02-03T15:18:53.190Z,35
2017-02-03T15:23:12.680Z,35
2017-02-03T15:25:38.869Z,30
2017-02-03T15:30:06.848Z,30
2017-02-03T15:32:33.040Z,30
2017-02-03T15:34:59.245Z,25
2017-02-03T15:37:25.459Z,25
2017-02-03T15:39:51.629Z,25
2017-02-03T15:42:17.794Z,25
2017-02-03T15:44:43.968Z,25
2017-02-03T15:47:10.155Z,25
2017-02-03T15:49:36.367Z,20
2017-02-03T15:52:02.542Z,20
2017-02-03T15:56:47.765Z,15
2017-02-03T15:59:13.989Z,15
2017-02-03T16:01:40.218Z,15
2017-02-03T16:04:06.397Z,10
2017-02-03T16:06:32.594Z,10
2017-02-03T16:08:58.778Z,10
2017-02-03T16:11:24.972Z,5
2017-02-03T16:13:51.138Z,5
2017-02-03T16:18:19.077Z,5
2017-02-03T16:22:55.708Z,0
2017-02-03T16:25:21.891Z,0
2017-02-03T16:29:58.450Z,0
2017-02-03T16:32:24.682Z,0
2017-02-03T16:34:50.850Z,0
2017-02-03T16:37:16.998Z,0
2017-02-03T16:41:28.413Z,0
2017-02-03T16:44:02.070Z,0
2017-02-03T16:48:04.548Z,0
2017-02-03T16:50:30.752Z,0
2017-02-03T16:52:56.929Z,0
2017-02-03T16:56:58.992Z,0
2017-02-03T16:59:25.158Z,0
2017-02-03T17:01:51.324Z,0
2017-02-03T17:04:00.360Z,0
2017-02-03T17:06:17.925Z,0
2017-02-03T17:08:44.048Z,0
2017-02-03T17:14:46.666Z,0
2017-02-03T17:17:12.773Z,0
2017-02-03T17:19:38.843Z,0
2017-02-03T17:24:15.282Z,0
2017-02-03T17:26:24.233Z,0
2017-02-03T17:28:50.283Z,0
2017-02-03T17:31:16.351Z,0
2017-02-03T17:33:42.415Z,0
2017-02-03T17:38:27.486Z,0
2017-02-03T17:40:53.586Z,0
2017-02-03T17:43:02.546Z,0
2017-02-03T17:45:28.613Z,0
2017-02-03T17:47:54.629Z,0
2017-02-03T17:50:20.681Z,0
2017-02-03T17:52:46.672Z,0
2017-02-03T17:55:12.713Z,0
2017-02-03T17:57:38.713Z,0
2017-02-03T18:02:06.457Z,0
2017-02-03T18:04:32.538Z,0
2017-02-03T18:06:50.031Z,0
2017-02-03T18:09:16.076Z,0
2017-02-03T18:11:42.096Z,0
2017-02-03T18:16:09.878Z,0
2017-02-03T18:18:35.902Z,0
2017-02-03T18:21:01.976Z,0
2017-02-03T18:23:28.012Z,0
2017-02-03T18:25:54.022Z,0
2017-02-03T18:30:30.428Z,0
2017-02-03T18:32:47.901Z,0
2017-02-03T18:35:13.923Z,0
2017-02-03T18:39:41.705Z,0
2017-02-03T18:42:07.728Z,0
2017-02-03T18:44:25.191Z,0
2017-02-03T18:46:51.192Z,0
2017-02-03T18:49:17.146Z,0
2017-02-03T18:51:43.093Z,0
2017-02-03T18:54:09.063Z,0
2017-02-03T18:56:35.014Z,0
2017-02-03T18:59:00.910Z,0
2017-02-03T19:01:26.803Z,0
2017-02-03T19:03:52.717Z,0
2017-02-03T19:06:18.635Z,0
2017-02-03T19:08:44.555Z,0
2017-02-03T19:11:10.458Z,0
2017-02-03T19:13:36.397Z,0
2017-02-03T19:16:02.341Z,0
2017-02-03T19:20:38.649Z,0
2017-02-03T19:23:04.661Z,0
2017-02-03T19:25:30.638Z,0
2017-02-03T19:27:56.592Z,0
2017-02-03T19:30:22.548Z,0
2017-02-03T19:32:48.511Z,0
2017-02-03T19:35:14.471Z,0
2017-02-03T19:37:40.408Z,0
2017-02-03T19:40:06.369Z,0
2017-02-03T19:42:32.338Z,0
2017-02-03T19:44:58.254Z,0
2017-02-03T19:47:24.148Z,0
2017-02-03T19:53:53.434Z,0
2017-02-03T19:56:10.805Z,0
2017-02-03T19:58:36.698Z,0
2017-02-03T20:01:02.622Z,0
2017-02-03T20:03:28.533Z,0
2017-02-03T20:05:54.457Z,0
2017-02-03T20:10:22.028Z,0
2017-02-03T20:12:39.431Z,0
2017-02-03T20:15:05.392Z,0
2017-02-03T20:17:31.334Z,0
2017-02-03T20:19:57.261Z,0
2017-02-03T20:22:23.195Z,0
2017-02-03T20:24:49.139Z,0
2017-02-03T20:27:15.068Z,0
2017-02-03T20:29:41.026Z,0
2017-02-03T20:32:06.954Z,0
2017-02-03T20:34:32.905Z,0
2017-02-03T20:36:58.870Z,0
2017-02-03T20:39:24.809Z,0
2017-02-03T20:41:50.730Z,0
2017-02-03T20:44:16.689Z,0
2017-02-03T20:46:42.647Z,0
2017-02-03T20:49:08.607Z,0
2017-02-03T20:51:34.570Z,0
2017-02-03T20:54:00.533Z,0
2017-02-03T20:56:26.445Z,0
2017-02-03T21:00:36.869Z,0
2017-02-03T21:03:02.798Z,0
2017-02-03T21:05:28.732Z,0
2017-02-03T21:07:54.641Z,0
2017-02-03T21:10:20.545Z,0
2017-02-03T21:12:37.909Z,0
2017-02-03T21:14:55.264Z,0
2017-02-03T21:17:21.146Z,0
2017-02-03T21:19:47.084Z,0
2017-02-03T21:22:12.984Z,0
2017-02-03T21:28:42.291Z,0
2017-02-03T21:30:59.683Z,0
2017-02-03T21:33:25.621Z,0
2017-02-03T21:35:51.550Z,0
2017-02-03T21:38:17.491Z,0
2017-02-03T21:40:43.417Z,0
2017-02-03T21:43:09.295Z,0
2017-02-03T21:45:35.207Z,0
2017-02-03T21:48:01.114Z,0
2017-02-03T21:50:27.023Z,0
2017-02-03T21:52:52.933Z,0
2017-02-03T21:57:29.143Z,0
2017-02-03T21:59:55.102Z,0
2017-02-03T22:02:21.030Z,0
2017-02-03T22:04:46.982Z,0
2017-02-03T22:07:12.894Z,0
2017-02-03T22:11:40.656Z,0
2017-02-03T22:14:06.609Z,0
2017-02-03T22:16:32.532Z,0
2017-02-03T22:18:58.419Z,0
2017-02-03T22:23:26.078Z,0
2017-02-03T22:25:51.975Z,0
2017-02-03T22:28:17.924Z,0
2017-02-03T22:30:43.868Z,0
2017-02-03T22:33:09.783Z,0
2017-02-03T22:35:35.705Z,0
2017-02-03T22:37:53.085Z,0
2017-02-03T22:40:19.013Z,0
2017-02-03T22:42:44.975Z,0
2017-02-03T22:45:10.851Z,0
2017-02-03T22:47:36.768Z,0
2017-02-03T22:50:02.705Z,0
2017-02-03T22:52:28.625Z,0
2017-02-03T22:54:54.562Z,0
2017-02-03T22:57:11.903Z,0
2017-02-03T22:59:37.785Z,0
2017-02-03T23:02:03.671Z,0
2017-02-03T23:04:29.571Z,0
2017-02-03T23:06:55.459Z,0
2017-02-03T23:09:21.370Z,0
2017-02-03T23:11:47.293Z,0
2017-02-03T23:14:13.207Z,0
2017-02-03T23:18:14.922Z,0
2017-02-03T23:20:40.855Z,0
2017-02-03T23:23:06.774Z,0
2017-02-03T23:25:32.715Z,0
2017-02-03T23:27:58.647Z,0
2017-02-03T23:30:24.579Z,0
2017-02-03T23:32:50.498Z,0
2017-02-03T23:35:16.406Z,0
2017-02-03T23:37:33.779Z,0
2017-02-03T23:39:59.701Z,0
2017-02-03T23:42:25.608Z,0
2017-02-03T23:44:51.498Z,0
2017-02-03T23:47:17.397Z,0
2017-02-03T23:49:43.318Z,0
2017-02-03T23:52:09.173Z,0
2017-02-03T23:54:35.070Z,0
2017-02-03T23:58:28.218Z,0
